Time;durP1;ratioP1;P1;durP2;ratioP2;P2;SDS_P1;SDS_P2;PMS_P1;PMS_P2;Temp;Humidity;BMP_temperature;BMP_pressure;BME280_temperature;BME280_humidity;BME280_pressure;Samples;Min_cycle;Max_cycle;Signal;HPM_P1;HPM_P2
2023/10/16 00:00:43;;;;;;;1.60;1.40;;;6.30;98.20;;;;;;5026760;28;20470;-76
2023/10/16 00:03:12;;;;;;;1.53;1.40;;;6.30;98.20;;;;;;5033360;28;20482;-76
2023/10/16 00:05:44;;;;;;;1.57;1.40;;;6.30;98.20;;;;;;5025946;28;20478;-76
2023/10/16 00:08:12;;;;;;;1.60;1.30;;;6.30;98.20;;;;;;5015936;28;20471;-76
2023/10/16 00:10:38;;;;;;;1.60;1.40;;;6.30;98.20;;;;;;5025539;28;20460;-76
2023/10/16 00:13:10;;;;;;;1.60;1.30;;;6.20;98.20;;;;;;5032419;28;20478;-76
2023/10/16 00:15:41;;;;;;;1.50;1.30;;;6.30;98.20;;;;;;5026673;28;20467;-76
2023/10/16 00:18:13;;;;;;;1.60;1.40;;;6.20;98.20;;;;;;5032501;28;20873;-76
2023/10/16 00:20:41;;;;;;;1.60;1.40;;;6.20;98.20;;;;;;5027303;28;20463;-76
2023/10/16 00:23:10;;;;;;;1.60;1.40;;;6.20;98.20;;;;;;5034784;28;20476;-76
2023/10/16 00:25:38;;;;;;;1.60;1.30;;;6.20;98.20;;;;;;5026225;28;20459;-77
2023/10/16 00:28:06;;;;;;;1.57;1.30;;;6.20;98.20;;;;;;5036540;28;20477;-76
2023/10/16 00:30:33;;;;;;;1.60;1.40;;;6.10;98.20;;;;;;5027440;28;20465;-76
2023/10/16 00:33:01;;;;;;;1.53;1.30;;;6.10;98.20;;;;;;5025895;28;20489;-76
2023/10/16 00:35:28;;;;;;;1.60;1.30;;;6.10;98.20;;;;;;5026219;28;20459;-76
2023/10/16 00:37:57;;;;;;;1.60;1.40;;;6.10;98.20;;;;;;5039742;28;20489;-76
2023/10/16 00:40:32;;;;;;;1.50;1.30;;;6.10;98.20;;;;;;5027048;28;20473;-76
2023/10/16 00:43:06;;;;;;;1.60;1.30;;;6.10;98.20;;;;;;5032426;28;20466;-76
2023/10/16 00:45:38;;;;;;;1.53;1.30;;;6.10;98.20;;;;;;5023379;28;20466;-76
2023/10/16 00:48:08;;;;;;;1.60;1.47;;;6.10;98.20;;;;;;5009794;28;21018;-76
2023/10/16 00:50:35;;;;;;;1.57;1.30;;;6.10;98.20;;;;;;5025597;28;20502;-76
2023/10/16 00:53:03;;;;;;;1.60;1.40;;;6.10;98.20;;;;;;5009820;28;20562;-76
2023/10/16 00:55:30;;;;;;;1.50;1.30;;;6.10;98.20;;;;;;5026922;28;21081;-75
2023/10/16 00:57:59;;;;;;;1.57;1.30;;;6.10;98.20;;;;;;5009756;28;20479;-76
2023/10/16 01:00:26;;;;;;;1.53;1.30;;;6.10;98.20;;;;;;5026566;28;20954;-76
2023/10/16 01:02:52;;;;;;;1.60;1.40;;;6.00;98.20;;;;;;5037189;28;21033;-76
2023/10/16 01:05:23;;;;;;;1.60;1.40;;;6.00;98.20;;;;;;5025177;28;20463;-76
2023/10/16 01:07:51;;;;;;;1.60;1.40;;;6.00;98.20;;;;;;5009008;28;20478;-76
2023/10/16 01:10:20;;;;;;;1.57;1.30;;;6.00;98.20;;;;;;5026768;28;20482;-76
2023/10/16 01:12:55;;;;;;;1.60;1.40;;;6.00;98.20;;;;;;5041906;28;20878;-79
2023/10/16 01:15:22;;;;;;;1.60;1.40;;;5.90;98.20;;;;;;5030448;28;20546;-77
2023/10/16 01:17:50;;;;;;;1.60;1.40;;;5.90;98.20;;;;;;5035418;28;20490;-77
2023/10/16 01:20:18;;;;;;;1.60;1.30;;;5.90;98.20;;;;;;5030304;28;21064;-77
2023/10/16 01:22:47;;;;;;;1.57;1.30;;;5.90;98.20;;;;;;5038447;28;20547;-77
2023/10/16 01:25:17;;;;;;;1.60;1.50;;;5.80;98.20;;;;;;5027033;28;20549;-77
2023/10/16 01:27:44;;;;;;;1.60;1.30;;;5.80;98.20;;;;;;5030377;28;20524;-77
2023/10/16 01:30:12;;;;;;;1.60;1.30;;;5.80;98.20;;;;;;5029248;28;20782;-77
2023/10/16 01:32:39;;;;;;;1.60;1.40;;;5.80;98.20;;;;;;5033024;28;20484;-78
2023/10/16 01:35:08;;;;;;;1.57;1.30;;;5.80;98.20;;;;;;5026587;28;20661;-78
2023/10/16 01:37:38;;;;;;;1.60;1.40;;;5.80;98.20;;;;;;5033183;28;20520;-78
2023/10/16 01:40:17;;;;;;;1.57;1.30;;;5.80;98.20;;;;;;5031399;28;21086;-78
2023/10/16 01:42:45;;;;;;;1.60;1.43;;;5.80;98.20;;;;;;5036607;28;20470;-78
2023/10/16 01:45:13;;;;;;;1.60;1.40;;;5.70;98.20;;;;;;5030405;28;20836;-78
2023/10/16 01:47:40;;;;;;;1.57;1.30;;;5.70;98.20;;;;;;5035106;28;20486;-78
2023/10/16 01:50:12;;;;;;;1.50;1.30;;;5.70;98.20;;;;;;5031833;28;20459;-78
2023/10/16 01:52:40;;;;;;;1.60;1.40;;;5.70;98.20;;;;;;5016895;28;20508;-78
2023/10/16 01:55:10;;;;;;;1.57;1.30;;;5.70;98.20;;;;;;5028129;28;20467;-78
2023/10/16 01:57:38;;;;;;;1.57;1.30;;;5.70;98.20;;;;;;5033818;28;20482;-77
2023/10/16 02:00:16;;;;;;;1.60;1.40;;;5.70;98.20;;;;;;5030827;28;20475;-78
2023/10/16 02:02:43;;;;;;;1.60;1.33;;;5.70;98.20;;;;;;5013393;28;20578;-78
2023/10/16 02:05:10;;;;;;;1.60;1.37;;;5.70;98.20;;;;;;5031233;28;20467;-77
2023/10/16 02:07:41;;;;;;;1.60;1.40;;;5.70;98.20;;;;;;5033097;28;20605;-78
2023/10/16 02:10:11;;;;;;;1.60;1.40;;;5.70;98.20;;;;;;5030088;28;20462;-78
2023/10/16 02:12:39;;;;;;;1.60;1.30;;;5.70;98.20;;;;;;5015139;28;20554;-78
2023/10/16 02:15:09;;;;;;;1.60;1.40;;;5.60;98.20;;;;;;5030336;28;20577;-78
2023/10/16 02:17:39;;;;;;;1.60;1.40;;;5.70;98.20;;;;;;5032624;28;20516;-78
2023/10/16 02:20:11;;;;;;;1.60;1.40;;;5.70;98.20;;;;;;5030330;28;20506;-78
2023/10/16 02:22:40;;;;;;;1.60;1.40;;;5.70;98.20;;;;;;5030640;28;20944;-78
2023/10/16 02:25:10;;;;;;;1.60;1.33;;;5.70;98.20;;;;;;5030483;28;20459;-78
2023/10/16 02:27:37;;;;;;;1.60;1.40;;;5.70;98.20;;;;;;5031578;28;20577;-78
2023/10/16 02:30:15;;;;;;;1.60;1.40;;;5.70;98.20;;;;;;5032463;28;20821;-78
2023/10/16 02:32:43;;;;;;;1.57;1.37;;;5.70;98.20;;;;;;5019724;28;20483;-78
2023/10/16 02:35:13;;;;;;;1.60;1.40;;;5.70;98.20;;;;;;5027654;28;20471;-78
2023/10/16 02:37:40;;;;;;;1.60;1.40;;;5.70;98.20;;;;;;5018090;28;20566;-77
2023/10/16 02:40:11;;;;;;;1.60;1.40;;;5.70;98.20;;;;;;5030651;28;21107;-77
2023/10/16 02:42:40;;;;;;;1.60;1.37;;;5.70;98.20;;;;;;5043685;28;20488;-78
2023/10/16 02:45:18;;;;;;;1.53;1.30;;;5.70;98.20;;;;;;5032350;28;20463;-78
2023/10/16 02:47:46;;;;;;;1.60;1.40;;;5.70;98.20;;;;;;5018731;28;20477;-78
2023/10/16 02:50:14;;;;;;;1.60;1.50;;;5.70;98.20;;;;;;5030797;28;20467;-78
2023/10/16 02:52:41;;;;;;;1.60;1.40;;;5.70;98.20;;;;;;5036570;28;20502;-78
2023/10/16 02:55:10;;;;;;;1.57;1.30;;;5.70;98.20;;;;;;5032004;28;20511;-78
2023/10/16 02:57:40;;;;;;;1.60;1.30;;;5.70;98.20;;;;;;5041961;28;20481;-78
2023/10/16 03:00:15;;;;;;;1.50;1.30;;;5.70;98.20;;;;;;5034960;28;20463;-78
2023/10/16 03:02:42;;;;;;;1.60;1.33;;;5.70;98.20;;;;;;5019918;28;20488;-78
2023/10/16 03:05:16;;;;;;;1.60;1.40;;;5.70;98.20;;;;;;5032588;28;20503;-79
2023/10/16 03:07:44;;;;;;;1.60;1.40;;;5.70;98.20;;;;;;5044184;28;20511;-78
2023/10/16 03:10:11;;;;;;;1.50;1.30;;;5.70;98.20;;;;;;5033249;28;20470;-78
2023/10/16 03:12:38;;;;;;;1.53;1.33;;;5.70;98.20;;;;;;5017601;28;20469;-78
2023/10/16 03:15:15;;;;;;;1.60;1.50;;;5.70;98.20;;;;;;5029847;28;20478;-78
2023/10/16 03:17:41;;;;;;;1.60;1.40;;;5.70;98.20;;;;;;5043951;28;20470;-78
2023/10/16 03:20:19;;;;;;;1.60;1.40;;;5.70;98.20;;;;;;5031066;28;20466;-78
2023/10/16 03:22:47;;;;;;;1.50;1.30;;;5.80;98.20;;;;;;5050096;28;20466;-77
2023/10/16 03:25:50;;;;;;;1.57;1.30;;;5.70;98.20;;;;;;5027906;28;20970;-77
2023/10/16 03:28:12;;;;;;;1.53;1.30;;;5.80;98.20;;;;;;5024612;28;20561;-78
2023/10/16 03:30:42;;;;;;;1.50;1.40;;;5.70;98.20;;;;;;5026878;28;20466;-77
2023/10/16 03:33:13;;;;;;;1.53;1.30;;;5.70;98.20;;;;;;5031829;28;20567;-77
2023/10/16 03:35:43;;;;;;;1.60;1.30;;;5.70;98.20;;;;;;5026375;28;20513;-78
2023/10/16 03:38:12;;;;;;;1.57;1.30;;;5.70;98.20;;;;;;5031752;28;20475;-78
2023/10/16 03:40:41;;;;;;;1.50;1.30;;;5.70;98.20;;;;;;5026733;28;20471;-77
2023/10/16 03:43:08;;;;;;;1.50;1.30;;;5.70;98.20;;;;;;5031356;28;20479;-77
2023/10/16 03:45:40;;;;;;;1.57;1.30;;;5.70;98.20;;;;;;5026284;28;20491;-77
2023/10/16 03:48:09;;;;;;;1.53;1.40;;;5.70;98.20;;;;;;5027563;28;20817;-77
2023/10/16 03:50:38;;;;;;;1.60;1.40;;;5.70;98.20;;;;;;5028082;28;20470;-77
2023/10/16 03:53:07;;;;;;;1.60;1.33;;;5.70;98.20;;;;;;5024136;28;20585;-77
2023/10/16 03:55:43;;;;;;;1.57;1.40;;;5.70;98.20;;;;;;5026699;28;20460;-77
2023/10/16 03:58:11;;;;;;;1.57;1.40;;;5.70;98.20;;;;;;5030149;28;20857;-77
2023/10/16 04:00:50;;;;;;;1.60;1.40;;;5.70;98.20;;;;;;5025410;28;20466;-78
2023/10/16 04:03:19;;;;;;;1.60;1.40;;;5.70;98.20;;;;;;5015740;28;20587;-79
2023/10/16 04:05:47;;;;;;;1.60;1.40;;;5.70;98.20;;;;;;5022883;28;21025;-77
2023/10/16 04:08:14;;;;;;;1.60;1.40;;;5.60;98.20;;;;;;5035910;28;21084;-77
2023/10/16 04:10:47;;;;;;;1.60;1.33;;;5.60;98.20;;;;;;5029322;28;20475;-77
2023/10/16 04:13:15;;;;;;;1.57;1.40;;;5.60;98.20;;;;;;5015169;28;21012;-77
2023/10/16 04:18:30;;;;;;;1.60;1.40;;;5.60;98.20;;;;;;5013662;28;21016;-77
2023/10/16 04:21:29;;;;;;;1.57;1.30;;;5.60;98.20;;;;;;5018814;28;21258;-77
2023/10/16 04:23:55;;;;;;;1.50;1.30;;;5.60;98.20;;;;;;5032664;28;20482;-77
2023/10/16 04:26:46;;;;;;;1.50;1.37;;;5.60;98.20;;;;;;5019845;28;20487;-77
2023/10/16 04:29:26;;;;;;;1.60;1.30;;;5.60;98.20;;;;;;5029376;28;20478;-77
2023/10/16 04:32:07;;;;;;;1.60;1.40;;;5.60;98.20;;;;;;5017730;28;20558;-77
2023/10/16 04:34:34;;;;;;;1.57;1.30;;;5.60;98.20;;;;;;5026761;28;20459;-77
2023/10/16 04:43:03;;;;;;;1.57;1.30;;;5.60;98.20;;;;;;5023915;28;20547;-77
2023/10/16 04:45:39;;;;;;;1.57;1.30;;;5.60;98.20;;;;;;5026614;28;20463;-77
2023/10/16 04:48:23;;;;;;;1.50;1.30;;;5.60;98.20;;;;;;5029916;28;21009;-77
2023/10/16 04:51:09;;;;;;;1.60;1.30;;;5.60;98.20;;;;;;5017031;28;21045;-77
2023/10/16 04:53:48;;;;;;;1.60;1.30;;;5.60;98.20;;;;;;5037728;28;20467;-77
2023/10/16 04:56:16;;;;;;;1.53;1.30;;;5.60;98.20;;;;;;5018348;28;21004;-76
2023/10/16 04:58:59;;;;;;;1.50;1.30;;;5.60;98.20;;;;;;5034668;28;20464;-77
2023/10/16 05:01:55;;;;;;;1.60;1.40;;;5.60;98.20;;;;;;5018722;28;20486;-77
2023/10/16 05:07:16;;;;;;;1.50;1.30;;;5.50;98.20;;;;;;5023818;28;20550;-77
2023/10/16 05:18:12;;;;;;;1.57;1.30;;;5.60;98.20;;;;;;5028759;28;20481;-77
2023/10/16 05:21:16;;;;;;;1.50;1.30;;;5.60;98.20;;;;;;5025020;28;20515;-77
2023/10/16 06:16:20;;;;;;;1.53;1.30;;;5.50;98.20;;;;;;5019805;28;20476;-77
2023/10/16 06:18:48;;;;;;;1.53;1.30;;;5.50;98.20;;;;;;5027267;28;20873;-77
2023/10/16 06:21:18;;;;;;;1.60;1.40;;;5.60;98.20;;;;;;5023345;28;20879;-77
2023/10/16 06:23:48;;;;;;;1.50;1.30;;;5.60;98.20;;;;;;5039124;28;20486;-78
2023/10/16 06:26:15;;;;;;;1.60;1.40;;;5.50;98.20;;;;;;5023935;28;20481;-77
2023/10/16 06:28:49;;;;;;;1.60;1.33;;;5.50;98.20;;;;;;5053715;28;20471;-77
2023/10/16 06:31:22;;;;;;;1.50;1.30;;;5.60;98.20;;;;;;5022373;28;20474;-77
2023/10/16 06:33:57;;;;;;;1.60;1.30;;;5.60;98.20;;;;;;5046656;28;21053;-78
2023/10/16 06:36:27;;;;;;;1.53;1.30;;;5.60;98.20;;;;;;5016821;28;20482;-78
2023/10/16 06:38:54;;;;;;;1.53;1.30;;;5.60;98.20;;;;;;5026158;28;20550;-78
2023/10/16 06:41:21;;;;;;;1.60;1.30;;;5.60;98.20;;;;;;5017535;28;20951;-77
2023/10/16 06:43:48;;;;;;;1.60;1.30;;;5.70;98.20;;;;;;5025463;28;21040;-77
2023/10/16 06:46:23;;;;;;;1.60;1.30;;;5.70;98.20;;;;;;5018796;28;20474;-78
2023/10/16 06:48:51;;;;;;;1.53;1.30;;;5.80;98.20;;;;;;5028324;28;20469;-77
2023/10/16 06:51:18;;;;;;;1.60;1.30;;;5.80;98.20;;;;;;5019159;28;20494;-77
2023/10/16 06:53:46;;;;;;;1.60;1.40;;;5.90;98.20;;;;;;5027233;28;20502;-77
2023/10/16 06:56:27;;;;;;;1.57;1.33;;;5.90;98.20;;;;;;5017381;28;20479;-77
2023/10/16 06:58:56;;;;;;;1.60;1.30;;;5.90;98.20;;;;;;5025796;28;21018;-78
2023/10/16 07:01:25;;;;;;;1.60;1.40;;;6.00;98.20;;;;;;5019792;28;20653;-78
2023/10/16 07:03:54;;;;;;;1.60;1.30;;;6.00;98.20;;;;;;5027741;28;20506;-77
2023/10/16 07:06:24;;;;;;;1.50;1.40;;;6.00;98.20;;;;;;5019280;28;20511;-77
2023/10/16 07:08:52;;;;;;;1.50;1.30;;;6.10;98.20;;;;;;5026862;28;20536;-77
2023/10/16 07:11:21;;;;;;;1.57;1.30;;;6.10;98.20;;;;;;5022419;28;20493;-78
2023/10/16 07:13:48;;;;;;;1.53;1.30;;;6.20;98.20;;;;;;5048816;28;20590;-77
2023/10/16 07:16:16;;;;;;;1.60;1.30;;;6.20;98.20;;;;;;5020039;28;20486;-77
2023/10/16 07:18:43;;;;;;;1.57;1.30;;;6.20;98.20;;;;;;5037684;28;20474;-78
2023/10/16 07:21:17;;;;;;;1.60;1.30;;;6.20;98.20;;;;;;5019430;28;20474;-77
2023/10/16 07:23:44;;;;;;;1.53;1.30;;;6.30;98.20;;;;;;5038246;28;20486;-77
2023/10/16 07:26:16;;;;;;;1.57;1.30;;;6.30;98.20;;;;;;5013882;28;20579;-77
2023/10/16 07:28:48;;;;;;;1.50;1.30;;;6.40;98.20;;;;;;5026492;28;20459;-77
2023/10/16 07:31:16;;;;;;;1.53;1.30;;;6.40;98.20;;;;;;5020318;28;20589;-77
2023/10/16 07:33:43;;;;;;;1.53;1.30;;;6.50;98.20;;;;;;5038470;28;20830;-77
2023/10/16 07:36:12;;;;;;;2.33;2.10;;;6.60;98.20;;;;;;5019342;28;21070;-77
2023/10/16 07:38:39;;;;;;;1.57;1.30;;;6.60;98.20;;;;;;5038566;28;20467;-77
2023/10/16 07:41:09;;;;;;;1.60;1.40;;;6.70;98.20;;;;;;5021532;28;20459;-76
2023/10/16 07:43:37;;;;;;;1.60;1.40;;;6.70;98.20;;;;;;5046280;28;20483;-76
2023/10/16 07:46:19;;;;;;;1.53;1.23;;;6.80;98.20;;;;;;5018707;28;20479;-76
2023/10/16 07:48:50;;;;;;;1.60;1.40;;;6.70;98.20;;;;;;5035693;28;20459;-77
2023/10/16 07:51:19;;;;;;;1.50;1.30;;;6.80;98.20;;;;;;5019205;28;20485;-77
2023/10/16 07:53:49;;;;;;;1.60;1.37;;;6.80;98.20;;;;;;5035058;28;20502;-76
2023/10/16 07:56:25;;;;;;;1.57;1.30;;;6.90;98.20;;;;;;5019710;28;20488;-77
2023/10/16 07:58:56;;;;;;;1.53;1.20;;;6.90;98.20;;;;;;5031437;28;20542;-77
2023/10/16 08:01:42;;;;;;;1.60;1.23;;;7.00;98.20;;;;;;5019866;28;20470;-77
2023/10/16 08:04:27;;;;;;;1.57;1.30;;;7.10;98.20;;;;;;5035423;28;20903;-77
2023/10/16 08:06:56;;;;;;;1.57;1.30;;;7.20;98.20;;;;;;5023007;28;20482;-77
2023/10/16 08:12:18;;;;;;;1.53;1.20;;;7.30;98.20;;;;;;5026498;28;20660;-77
2023/10/16 08:14:51;;;;;;;1.60;1.30;;;7.40;98.20;;;;;;5030288;28;20459;-77
2023/10/16 08:17:18;;;;;;;1.53;1.20;;;7.50;98.20;;;;;;5025519;28;20609;-77
2023/10/16 08:19:46;;;;;;;1.53;1.20;;;7.60;98.20;;;;;;5030150;28;20459;-77
2023/10/16 08:22:14;;;;;;;1.50;1.30;;;7.70;98.20;;;;;;5028069;28;20474;-76
2023/10/16 08:24:44;;;;;;;1.57;1.20;;;7.80;98.20;;;;;;5031405;28;21086;-77
2023/10/16 08:27:19;;;;;;;1.60;1.30;;;7.90;98.20;;;;;;5021112;28;20483;-77
2023/10/16 08:29:54;;;;;;;1.50;1.20;;;8.00;98.20;;;;;;5027436;28;20474;-77
2023/10/16 08:35:10;;;;;;;2.10;1.90;;;8.30;98.20;;;;;;5026387;28;20471;-77
2023/10/16 08:37:40;;;;;;;1.60;1.30;;;8.40;98.20;;;;;;5027951;28;20490;-77
2023/10/16 08:40:18;;;;;;;1.53;1.20;;;8.50;98.20;;;;;;5026466;28;20565;-77
2023/10/16 08:42:51;;;;;;;1.60;1.20;;;8.60;98.20;;;;;;5039487;28;20551;-77
2023/10/16 08:45:24;;;;;;;1.60;1.27;;;8.80;98.20;;;;;;5025947;28;20911;-76
2023/10/16 08:47:52;;;;;;;1.60;1.27;;;8.90;98.20;;;;;;5022983;28;20580;-77
2023/10/16 08:50:25;;;;;;;1.60;1.20;;;9.00;98.20;;;;;;5023458;28;20467;-76
2023/10/16 08:52:58;;;;;;;1.50;1.13;;;9.00;98.20;;;;;;5026396;28;20531;-77
2023/10/16 08:55:26;;;;;;;1.53;1.10;;;9.10;98.20;;;;;;5022840;28;20458;-76
2023/10/16 08:57:54;;;;;;;1.53;1.20;;;9.10;98.20;;;;;;5028579;28;21066;-76
2023/10/16 09:00:30;;;;;;;1.57;1.10;;;9.20;98.20;;;;;;5023221;28;20613;-76
2023/10/16 09:03:01;;;;;;;1.53;1.10;;;9.30;98.20;;;;;;5026978;28;21060;-76
2023/10/16 09:05:29;;;;;;;1.53;1.10;;;9.50;98.20;;;;;;5017531;28;21049;-76
2023/10/16 09:07:56;;;;;;;1.60;1.20;;;9.70;98.20;;;;;;5027423;28;20580;-76
2023/10/16 09:10:23;;;;;;;1.53;1.10;;;9.80;98.20;;;;;;5022874;28;20476;-76
2023/10/16 09:13:13;;;;;;;1.60;1.17;;;9.90;98.20;;;;;;5020645;28;20483;-76
2023/10/16 09:15:46;;;;;;;1.53;1.07;;;10.00;98.20;;;;;;5023679;28;20863;-76
2023/10/16 09:18:14;;;;;;;1.57;1.10;;;10.00;98.20;;;;;;5009906;28;20479;-76
2023/10/16 09:20:42;;;;;;;1.50;1.10;;;10.10;98.20;;;;;;5025176;28;21233;-76
2023/10/16 09:23:14;;;;;;;1.57;1.10;;;10.30;98.20;;;;;;5032044;28;20490;-76
2023/10/16 09:25:45;;;;;;;1.53;1.10;;;10.40;98.20;;;;;;5023335;28;20508;-74
2023/10/16 09:28:18;;;;;;;1.60;1.20;;;10.50;98.20;;;;;;5008152;28;20495;-76
2023/10/16 09:30:48;;;;;;;1.53;1.10;;;10.50;98.20;;;;;;5022003;28;20613;-75
2023/10/16 09:33:16;;;;;;;1.60;1.10;;;10.60;98.20;;;;;;5010933;28;20483;-75
2023/10/16 09:35:46;;;;;;;1.53;1.10;;;10.70;98.20;;;;;;5022003;28;20468;-76
2023/10/16 09:38:18;;;;;;;1.50;1.10;;;10.70;98.20;;;;;;5010984;28;20506;-77
2023/10/16 09:40:58;;;;;;;1.50;1.07;;;10.80;98.20;;;;;;5027449;28;20832;-75
2023/10/16 09:43:27;;;;;;;1.50;1.10;;;10.80;98.20;;;;;;5014399;28;21075;-74
2023/10/16 09:48:39;;;;;;;1.57;1.00;;;10.90;98.20;;;;;;5038997;28;20475;-76
2023/10/16 09:51:09;;;;;;;1.50;1.03;;;11.00;98.20;;;;;;5016097;28;20645;-75
2023/10/16 09:53:36;;;;;;;1.50;1.10;;;11.10;98.20;;;;;;5034954;28;20467;-75
2023/10/16 09:56:05;;;;;;;1.53;1.00;;;11.20;98.20;;;;;;5018121;28;20483;-74
2023/10/16 09:58:36;;;;;;;1.60;1.23;;;11.10;98.20;;;;;;5037179;28;21003;-76
2023/10/16 10:01:10;;;;;;;1.53;1.00;;;11.00;98.20;;;;;;5017542;28;20888;-75
2023/10/16 10:03:38;;;;;;;1.60;1.27;;;11.00;98.20;;;;;;5037561;28;20591;-75
2023/10/16 10:06:12;;;;;;;1.53;1.00;;;11.10;98.20;;;;;;5015567;28;20491;-75
2023/10/16 10:09:20;;;;;;;1.50;1.00;;;11.10;98.20;;;;;;5037730;28;20467;-73
2023/10/16 10:11:58;;;;;;;1.50;1.10;;;11.10;98.20;;;;;;5022222;28;20485;-76
2023/10/16 10:14:32;;;;;;;1.50;1.00;;;11.00;98.20;;;;;;5031556;28;22721;-75
2023/10/16 10:17:04;;;;;;;2.53;2.33;;;11.10;98.20;;;;;;5024074;28;20746;-75
2023/10/16 10:19:39;;;;;;;1.50;1.00;;;11.20;98.20;;;;;;5034171;28;20467;-76
2023/10/16 10:22:16;;;;;;;1.50;1.00;;;11.30;98.20;;;;;;5024578;28;20895;-76
2023/10/16 10:24:48;;;;;;;1.53;1.10;;;11.40;98.20;;;;;;5030045;28;20490;-75
2023/10/16 10:27:16;;;;;;;1.50;1.10;;;11.60;98.20;;;;;;5024276;28;20603;-75
2023/10/16 10:29:48;;;;;;;1.50;1.00;;;11.80;98.20;;;;;;5024103;28;20866;-76
2023/10/16 10:32:17;;;;;;;1.50;1.10;;;11.90;98.20;;;;;;5023448;28;20496;-75
2023/10/16 10:34:47;;;;;;;1.50;1.00;;;12.00;98.20;;;;;;5022952;28;20483;-76
2023/10/16 10:37:48;;;;;;;1.50;1.00;;;12.00;98.20;;;;;;5024071;28;21078;-76
2023/10/16 10:40:21;;;;;;;1.50;1.10;;;12.20;98.20;;;;;;5023838;28;20881;-75
2023/10/16 10:42:53;;;;;;;1.50;1.00;;;12.20;98.20;;;;;;5028444;28;20481;-75
2023/10/16 10:45:33;;;;;;;1.50;1.00;;;12.20;98.20;;;;;;5024550;28;21065;-76
2023/10/16 10:48:09;;;;;;;1.53;1.00;;;12.30;98.20;;;;;;5025031;28;20485;-76
2023/10/16 10:50:38;;;;;;;1.50;1.00;;;12.30;98.20;;;;;;5020892;28;20466;-75
2023/10/16 10:53:13;;;;;;;1.53;1.00;;;12.30;98.20;;;;;;5025162;28;20503;-75
2023/10/16 10:55:56;;;;;;;1.53;1.00;;;12.30;98.20;;;;;;5020111;28;20478;-75
2023/10/16 10:58:31;;;;;;;1.50;1.00;;;12.40;98.20;;;;;;5011952;28;20490;-75
2023/10/16 11:01:15;;;;;;;1.50;1.00;;;12.30;98.20;;;;;;5015212;28;20473;-75
2023/10/16 11:03:45;;;;;;;1.50;1.03;;;12.20;98.20;;;;;;5033269;28;20475;-75
2023/10/16 11:06:19;;;;;;;1.53;1.00;;;12.20;98.20;;;;;;5014456;28;20509;-74
2023/10/16 11:08:48;;;;;;;1.50;1.00;;;12.30;98.20;;;;;;5030124;28;20473;-75
2023/10/16 11:11:16;;;;;;;1.53;1.10;;;12.10;98.20;;;;;;5014401;28;20543;-76
2023/10/16 11:13:47;;;;;;;1.50;1.00;;;12.10;98.20;;;;;;5028456;28;20475;-75
2023/10/16 11:16:15;;;;;;;1.50;0.97;;;12.20;98.20;;;;;;5016392;28;20880;-77
2023/10/16 11:19:00;;;;;;;1.50;1.00;;;12.20;98.20;;;;;;5018606;28;21116;-74
2023/10/16 11:21:29;;;;;;;1.50;1.00;;;12.20;98.20;;;;;;4995149;28;22045;-74
2023/10/16 11:24:00;;;;;;;1.70;1.50;;;12.30;98.20;;;;;;5010001;28;20476;-75
2023/10/16 11:26:28;;;;;;;1.50;1.10;;;12.40;98.20;;;;;;4997571;28;20495;-75
2023/10/16 11:28:56;;;;;;;1.50;1.00;;;12.50;98.20;;;;;;5014383;28;21074;-75
2023/10/16 11:31:25;;;;;;;2.27;1.30;;;12.50;98.20;;;;;;5006983;28;20659;-75
2023/10/16 11:34:07;;;;;;;1.50;1.00;;;12.50;98.20;;;;;;5034983;28;20467;-75
2023/10/16 11:36:36;;;;;;;1.50;1.00;;;12.60;98.20;;;;;;5020894;28;20486;-75
2023/10/16 11:39:06;;;;;;;2.37;1.97;;;12.70;98.20;;;;;;5035829;28;20930;-76
2023/10/16 11:41:33;;;;;;;1.50;1.00;;;12.80;98.20;;;;;;5022280;28;20478;-76
2023/10/16 11:44:08;;;;;;;1.50;0.90;;;12.90;98.20;;;;;;5029550;28;20466;-73
2023/10/16 11:46:39;;;;;;;1.50;1.10;;;13.00;98.20;;;;;;5021728;28;21105;-76
2023/10/16 11:49:29;;;;;;;1.50;1.00;;;12.90;98.20;;;;;;5035990;28;20463;-77
2023/10/16 11:52:08;;;;;;;1.50;1.00;;;12.90;98.20;;;;;;5024886;28;20478;-76
2023/10/16 11:54:46;;;;;;;1.53;1.00;;;13.00;98.20;;;;;;5027091;28;20474;-76
2023/10/16 11:57:14;;;;;;;1.50;1.00;;;13.10;98.20;;;;;;5023234;28;21054;-75
2023/10/16 11:59:41;;;;;;;1.53;1.10;;;13.00;98.20;;;;;;5028753;28;20471;-76
2023/10/16 12:02:12;;;;;;;1.50;0.90;;;13.10;98.20;;;;;;5023736;28;20479;-76
2023/10/16 12:04:41;;;;;;;1.50;1.00;;;13.10;98.20;;;;;;5025732;28;21001;-75
2023/10/16 12:07:12;;;;;;;1.50;1.00;;;13.10;98.20;;;;;;5019217;28;20609;-75
2023/10/16 12:09:42;;;;;;;1.53;1.07;;;13.30;98.20;;;;;;5022028;28;20459;-75
2023/10/16 12:12:19;;;;;;;1.50;1.00;;;13.40;98.20;;;;;;5020731;28;20754;-75
2023/10/16 12:14:48;;;;;;;1.50;1.00;;;13.50;98.20;;;;;;5022057;28;20549;-74
2023/10/16 12:17:15;;;;;;;1.50;0.90;;;13.50;98.20;;;;;;5021044;28;20485;-76
2023/10/16 12:19:45;;;;;;;1.50;1.00;;;13.60;98.20;;;;;;5024103;28;20471;-75
2023/10/16 12:22:15;;;;;;;1.50;1.00;;;13.70;98.20;;;;;;5019726;28;20482;-76
2023/10/16 12:24:43;;;;;;;1.53;1.00;;;13.60;98.20;;;;;;5028902;28;20463;-75
2023/10/16 12:27:10;;;;;;;1.50;1.00;;;13.60;98.20;;;;;;5023037;28;20477;-74
2023/10/16 12:29:41;;;;;;;1.50;1.00;;;13.60;98.20;;;;;;5030112;28;20530;-76
2023/10/16 12:32:08;;;;;;;1.50;1.00;;;13.50;98.20;;;;;;5025841;28;20486;-75
2023/10/16 12:34:35;;;;;;;1.50;1.00;;;13.50;98.20;;;;;;5025720;28;20657;-76
2023/10/16 12:37:06;;;;;;;1.50;1.00;;;13.50;98.20;;;;;;5021564;28;20762;-75
2023/10/16 12:39:45;;;;;;;1.53;1.00;;;13.50;98.20;;;;;;5024597;28;20472;-76
2023/10/16 12:42:15;;;;;;;1.50;1.00;;;13.40;98.20;;;;;;5022332;28;20508;-76
2023/10/16 12:44:42;;;;;;;1.50;1.00;;;13.50;98.20;;;;;;5024197;28;20554;-75
2023/10/16 12:47:11;;;;;;;1.50;1.00;;;13.50;98.20;;;;;;5008814;28;20501;-76
2023/10/16 12:49:38;;;;;;;1.50;0.90;;;13.50;98.20;;;;;;5017813;28;20483;-75
2023/10/16 12:52:05;;;;;;;1.50;1.00;;;13.50;98.20;;;;;;5005804;28;20548;-76
2023/10/16 12:54:32;;;;;;;1.50;1.00;;;13.30;98.20;;;;;;5017101;28;20529;-76
2023/10/16 12:57:02;;;;;;;1.50;1.00;;;13.30;98.20;;;;;;5015805;28;20485;-74
2023/10/16 12:59:29;;;;;;;1.50;1.00;;;13.30;98.20;;;;;;5024601;28;20513;-74
2023/10/16 13:01:59;;;;;;;1.50;1.00;;;13.30;98.20;;;;;;5018572;28;20477;-75
2023/10/16 13:04:28;;;;;;;1.50;1.00;;;13.10;98.20;;;;;;5026857;28;20542;-75
2023/10/16 13:06:56;;;;;;;1.50;1.00;;;13.10;98.20;;;;;;5035319;22;20501;-73
2023/10/16 13:09:23;;;;;;;1.50;1.00;;;13.20;98.20;;;;;;5014904;28;20538;-75
2023/10/16 13:11:50;;;;;;;1.47;0.90;;;13.30;98.20;;;;;;5006935;28;20900;-76
2023/10/16 13:14:19;;;;;;;1.50;1.00;;;13.40;98.20;;;;;;5014847;28;20464;-73
2023/10/16 13:16:53;;;;;;;1.50;1.00;;;13.40;98.20;;;;;;4996782;28;20483;-74
2023/10/16 13:19:20;;;;;;;1.50;1.00;;;13.50;98.20;;;;;;5003290;28;20476;-73
2023/10/16 13:21:51;;;;;;;1.50;0.90;;;13.50;98.20;;;;;;4989996;28;20495;-75
2023/10/16 13:24:20;;;;;;;1.50;1.00;;;13.60;98.20;;;;;;4998408;28;20514;-75
2023/10/16 13:26:48;;;;;;;1.50;1.00;;;13.60;98.20;;;;;;4997769;28;20911;-74
2023/10/16 13:29:17;;;;;;;1.50;1.00;;;13.70;98.20;;;;;;5005235;28;20474;-74
2023/10/16 13:31:46;;;;;;;1.50;1.00;;;13.80;98.20;;;;;;4994724;28;20572;-75
2023/10/16 13:34:15;;;;;;;1.50;1.00;;;13.80;98.20;;;;;;5003469;28;20518;-75
2023/10/16 13:36:51;;;;;;;1.50;1.00;;;13.90;98.20;;;;;;4991161;28;20485;-74
2023/10/16 13:39:24;;;;;;;1.50;1.00;;;14.00;98.20;;;;;;5003381;28;20947;-74
2023/10/16 13:41:52;;;;;;;1.50;1.10;;;13.90;98.20;;;;;;4995826;28;20479;-75
2023/10/16 13:44:19;;;;;;;1.50;1.00;;;13.90;98.20;;;;;;5011117;28;20464;-74
2023/10/16 13:46:48;;;;;;;1.50;0.90;;;13.90;98.20;;;;;;4993521;28;20491;-74
2023/10/16 13:49:16;;;;;;;1.50;1.10;;;14.00;98.20;;;;;;5007393;28;20486;-74
2023/10/16 13:51:43;;;;;;;1.50;1.00;;;14.00;98.20;;;;;;4993301;28;20920;-74
2023/10/16 13:54:12;;;;;;;1.50;1.00;;;14.00;98.20;;;;;;5003907;28;20874;-73
2023/10/16 13:56:41;;;;;;;1.50;1.00;;;14.00;98.20;;;;;;4992931;28;20482;-74
2023/10/16 13:59:08;;;;;;;1.50;1.00;;;14.10;98.20;;;;;;5006678;28;20476;-75
2023/10/16 14:01:39;;;;;;;1.47;1.00;;;14.10;98.20;;;;;;4987171;28;20557;-76
2023/10/16 14:04:13;;;;;;;1.50;1.00;;;14.10;98.20;;;;;;4996248;28;20894;-75
2023/10/16 14:06:41;;;;;;;1.50;1.00;;;14.00;98.20;;;;;;4993313;28;20491;-74
2023/10/16 14:09:18;;;;;;;1.50;1.10;;;14.00;98.20;;;;;;5006133;28;20551;-74
2023/10/16 14:11:48;;;;;;;1.50;0.90;;;14.00;98.20;;;;;;4995595;28;20485;-75
2023/10/16 14:14:18;;;;;;;1.50;1.00;;;13.90;98.20;;;;;;5004823;28;20476;-74
2023/10/16 14:16:49;;;;;;;1.80;1.40;;;13.90;98.20;;;;;;4992123;28;20490;-75
2023/10/16 14:19:22;;;;;;;1.50;1.00;;;13.90;98.20;;;;;;5003046;28;20484;-72
2023/10/16 14:21:51;;;;;;;1.50;0.90;;;13.80;98.20;;;;;;4995451;28;20536;-75
2023/10/16 14:24:22;;;;;;;1.50;1.00;;;13.70;98.20;;;;;;5004203;28;20526;-75
2023/10/16 14:26:49;;;;;;;1.50;1.00;;;13.70;98.20;;;;;;4992514;28;20487;-75
2023/10/16 14:29:19;;;;;;;1.50;1.00;;;13.70;98.20;;;;;;4999964;28;20526;-75
2023/10/16 14:31:49;;;;;;;1.50;0.97;;;13.70;98.20;;;;;;4998953;28;21083;-74
2023/10/16 14:34:19;;;;;;;1.50;1.10;;;13.70;98.20;;;;;;5007018;28;21214;-75